Time;durP1;ratioP1;P1;durP2;ratioP2;P2;SDS_P1;SDS_P2;PMS_P1;PMS_P2;Temp;Humidity;BMP_temperature;BMP_pressure;BME280_temperature;BME280_humidity;BME280_pressure;Samples;Min_cycle;Max_cycle;Signal;HPM_P1;HPM_P2
2022/12/24 07:02:29;;;;;;;;;6.00;4.33;;;;;12.60;95.91;101136.78;6243086;22;45444;-66
2022/12/24 07:04:54;;;;;;;;;12.00;6.67;;;;;12.60;95.69;101131.44;6244187;22;45645;-66
2022/12/24 07:07:20;;;;;;;;;13.00;5.33;;;;;12.58;95.71;101127.06;6243978;22;65155;-66
2022/12/24 07:09:45;;;;;;;;;8.00;6.33;;;;;12.58;95.77;101123.53;6245137;22;52769;-66
2022/12/24 07:12:10;;;;;;;;;10.33;5.33;;;;;12.58;95.80;101136.88;6246558;22;51722;-66
2022/12/24 07:14:36;;;;;;;;;6.33;4.00;;;;;12.56;95.72;101147.59;6245345;22;68597;-66
2022/12/24 07:17:01;;;;;;;;;9.00;3.00;;;;;12.55;95.75;101139.69;6244962;22;64229;-66
2022/12/24 07:19:26;;;;;;;;;4.00;3.00;;;;;12.54;95.54;101152.19;6245014;22;63313;-66
2022/12/24 07:21:52;;;;;;;;;5.67;2.00;;;;;12.55;95.55;101166.38;6245337;22;59952;-68
2022/12/24 07:24:17;;;;;;;;;6.00;3.50;;;;;12.56;95.41;101152.94;6244956;22;68132;-66
2022/12/24 07:26:42;;;;;;;;;6.00;2.67;;;;;12.58;95.42;101147.56;6244811;22;45244;-66
2022/12/24 07:29:08;;;;;;;;;7.00;3.67;;;;;12.61;95.23;101150.03;6245722;22;61236;-66
2022/12/24 07:31:33;;;;;;;;;10.00;3.00;;;;;12.61;95.17;101144.72;6246017;22;54998;-66
2022/12/24 07:33:58;;;;;;;;;5.67;2.33;;;;;12.60;95.06;101150.97;6244674;22;47206;-67
2022/12/24 07:36:24;;;;;;;;;4.33;3.00;;;;;12.62;95.13;101157.13;6244504;22;62862;-66
2022/12/24 07:38:50;;;;;;;;;7.67;3.33;;;;;12.66;95.10;101155.13;6243516;22;61027;-66
2022/12/24 07:41:15;;;;;;;;;3.00;2.00;;;;;12.69;94.76;101173.66;6246078;22;45394;-67
2022/12/24 07:43:40;;;;;;;;;2.00;2.00;;;;;12.71;94.66;101182.44;6245691;22;46020;-66
2022/12/24 07:46:06;;;;;;;;;5.33;3.00;;;;;12.72;94.46;101184.16;6245093;22;51394;-66
2022/12/24 07:48:32;;;;;;;;;4.00;2.00;;;;;12.76;94.23;101187.53;6245674;22;58252;-69
2022/12/24 07:50:58;;;;;;;;;4.67;2.00;;;;;12.79;94.11;101184.69;6245994;22;45447;-69
2022/12/24 07:53:25;;;;;;;;;7.00;3.67;;;;;12.81;93.94;101182.81;6244118;22;46388;-66
2022/12/24 07:55:50;;;;;;;;;7.00;3.33;;;;;12.84;93.99;101182.63;6245712;22;45300;-69
2022/12/24 07:58:16;;;;;;;;;4.33;4.00;;;;;12.86;93.94;101184.28;6245325;22;45252;-67
2022/12/24 08:00:42;;;;;;;;;6.33;4.67;;;;;12.92;93.60;101177.78;6245586;22;45223;-67
2022/12/24 08:03:18;;;;;;;;;7.00;3.00;;;;;12.96;93.52;101184.66;6243736;22;67073;-67
2022/12/24 08:05:44;;;;;;;;;9.33;5.33;;;;;13.01;93.18;101185.28;6245060;22;45318;-68
2022/12/24 08:08:09;;;;;;;;;11.00;7.33;;;;;13.05;92.96;101183.31;6245391;22;45122;-67
2022/12/24 08:10:38;;;;;;;;;5.00;3.67;;;;;13.10;93.11;101191.06;6246036;22;45177;-68
2022/12/24 08:13:04;;;;;;;;;6.00;2.67;;;;;13.14;92.63;101192.63;6245248;22;45369;-67
2022/12/24 08:15:29;;;;;;;;;4.00;0.00;;;;;13.17;92.10;101195.13;6245709;22;45318;-67
2022/12/24 08:17:54;;;;;;;;;5.33;3.67;;;;;13.20;91.54;101197.63;6242053;22;60581;-67
2022/12/24 08:20:20;;;;;;;;;6.33;4.33;;;;;13.20;91.59;101203.81;6244944;22;60617;-68
2022/12/24 08:22:45;;;;;;;;;4.67;3.00;;;;;13.22;91.88;101203.75;6244573;22;45330;-66
2022/12/24 08:25:11;;;;;;;;;8.33;5.00;;;;;13.24;91.53;101202.72;6217978;22;45388;-65
2022/12/24 08:27:36;;;;;;;;;3.67;3.00;;;;;13.30;91.62;101216.69;6242489;22;45698;-66
2022/12/24 08:30:03;;;;;;;;;4.67;4.33;;;;;13.34;91.32;101218.25;6245333;22;45259;-66
2022/12/24 08:32:28;;;;;;;;;4.00;4.00;;;;;13.37;90.95;101221.63;6245917;22;47017;-66
2022/12/24 08:34:53;;;;;;;;;4.00;3.00;;;;;13.39;90.73;101233.09;6243184;22;62415;-66
2022/12/24 08:37:19;;;;;;;;;5.67;5.33;;;;;13.43;90.50;101228.47;6246448;22;45319;-67
2022/12/24 08:39:44;;;;;;;;;3.00;3.00;;;;;13.44;90.41;101232.88;6245116;22;45541;-67
2022/12/24 08:42:10;;;;;;;;;11.33;6.33;;;;;13.43;90.16;101230.25;6218299;22;45386;-66
2022/12/24 08:44:35;;;;;;;;;6.33;6.33;;;;;13.44;90.03;101240.00;6243512;22;57872;-67
2022/12/24 08:47:00;;;;;;;;;7.00;6.33;;;;;13.46;90.06;101238.13;6244250;22;59480;-66
2022/12/24 08:49:26;;;;;;;;;8.00;3.00;;;;;13.47;89.78;101240.69;6244511;22;62344;-65
2022/12/24 08:51:51;;;;;;;;;7.33;4.00;;;;;13.45;89.96;101242.56;6244246;22;64926;-65
2022/12/24 08:54:16;;;;;;;;;8.00;5.00;;;;;13.43;89.57;101240.94;6244914;22;45532;-66
2022/12/24 08:56:42;;;;;;;;;4.00;4.00;;;;;13.41;89.58;101249.03;6245225;22;60793;-66
2022/12/24 08:59:07;;;;;;;;;6.00;3.67;;;;;13.43;89.73;101262.31;6245028;22;58747;-66
2022/12/24 09:01:33;;;;;;;;;8.33;3.67;;;;;13.45;89.80;101263.09;6245532;22;65651;-65
2022/12/24 09:04:00;;;;;;;;;8.00;3.00;;;;;13.47;89.68;101261.22;6245822;22;45262;-67
2022/12/24 09:06:25;;;;;;;;;3.67;3.67;;;;;13.48;89.67;101274.50;6246060;22;45320;-65
2022/12/24 09:08:51;;;;;;;;;6.33;5.00;;;;;13.50;89.70;101263.72;6245776;22;45181;-66
2022/12/24 09:11:17;;;;;;;;;8.00;4.00;;;;;13.51;89.51;101270.78;6244903;22;65059;-66
2022/12/24 09:13:43;;;;;;;;;8.33;2.00;;;;;13.50;89.56;101271.72;6246244;22;45221;-66
2022/12/24 09:16:09;;;;;;;;;8.33;3.67;;;;;13.50;89.69;101275.25;6245143;22;45299;-66
2022/12/24 09:18:34;;;;;;;;;4.00;2.00;;;;;13.49;89.52;101275.34;6245178;22;45307;-66
2022/12/24 09:21:05;;;;;;;;;6.33;4.00;;;;;13.49;89.63;101278.91;6244519;22;45577;-65
2022/12/24 09:23:34;;;;;;;;;5.67;3.33;;;;;13.50;89.66;101287.78;6217961;22;45357;-65
2022/12/24 09:25:59;;;;;;;;;3.33;3.33;;;;;13.52;89.48;101294.75;6245459;22;45314;-66
2022/12/24 09:28:24;;;;;;;;;2.00;2.00;;;;;13.55;89.39;101299.91;6246052;22;45213;-67
2022/12/24 09:30:57;;;;;;;;;3.33;2.67;;;;;13.57;89.29;101286.47;6243411;22;59544;-66
2022/12/24 09:33:23;;;;;;;;;5.00;3.33;;;;;13.59;89.18;101297.94;6245962;22;45181;-67
2022/12/24 09:35:52;;;;;;;;;4.00;1.67;;;;;13.63;89.06;101296.84;6245365;22;45544;-67
2022/12/24 09:38:18;;;;;;;;;4.00;3.00;;;;;13.67;89.39;101300.22;6244595;22;52949;-66
2022/12/24 09:40:44;;;;;;;;;5.00;2.00;;;;;13.71;89.11;101305.31;6244736;22;45346;-66
2022/12/24 09:43:16;;;;;;;;;7.00;3.00;;;;;13.77;88.76;101301.44;6246687;22;45225;-69
2022/12/24 09:46:05;;;;;;;;;2.33;2.00;;;;;13.82;88.67;101311.84;6245617;22;45368;-65
2022/12/24 09:48:34;;;;;;;;;7.67;3.00;;;;;13.89;88.47;101302.56;6243742;22;45496;-66
2022/12/24 09:51:05;;;;;;;;;5.00;2.67;;;;;13.96;88.00;101293.25;6215083;22;45288;-66
2022/12/24 09:53:49;;;;;;;;;4.00;2.33;;;;;14.01;87.54;101291.16;6215817;22;45466;-66
2022/12/24 09:56:20;;;;;;;;;3.67;3.00;;;;;14.01;87.05;101298.31;6218326;22;45410;-66
2022/12/24 09:59:03;;;;;;;;;6.00;2.00;;;;;14.00;87.34;101297.47;6218615;22;45189;-67
2022/12/24 10:01:31;;;;;;;;;6.67;4.00;;;;;13.98;87.11;101287.81;6219238;22;45359;-69
2022/12/24 10:04:04;;;;;;;;;4.00;1.33;;;;;13.98;86.69;101298.50;6245880;22;45388;-66
2022/12/24 10:06:36;;;;;;;;;4.00;4.00;;;;;14.02;86.86;101297.38;6218621;22;45256;-66
2022/12/24 10:09:10;;;;;;;;;3.00;3.00;;;;;14.09;86.83;101290.72;6218863;22;45744;-73
2022/12/24 10:12:11;;;;;;;;;3.00;1.67;;;;;14.14;86.45;101293.13;6219224;22;45312;-66
2022/12/24 10:15:23;;;;;;;;;2.33;2.00;;;;;14.15;86.00;101295.72;6156329;23;45250;-67
2022/12/24 10:18:20;;;;;;;;;3.67;3.00;;;;;14.23;86.30;101303.31;6187918;22;45286;-66
2022/12/24 10:20:51;;;;;;;;;7.00;3.00;;;;;14.34;85.94;101295.53;6218692;22;45664;-67
2022/12/24 10:23:25;;;;;;;;;8.00;3.00;;;;;14.50;85.58;101305.34;6244981;22;46038;-66
2022/12/24 10:26:19;;;;;;;;;4.67;2.00;;;;;14.61;84.76;101302.88;6218059;22;45238;-66
2022/12/24 10:29:13;;;;;;;;;2.00;2.00;;;;;14.72;84.57;101299.63;6246037;22;45292;-67
2022/12/24 10:31:53;;;;;;;;;2.67;2.67;;;;;14.84;84.56;101301.53;6239761;22;45437;-66
2022/12/24 10:34:21;;;;;;;;;4.00;4.00;;;;;14.90;84.31;101303.00;6217986;22;46269;-66
2022/12/24 10:36:47;;;;;;;;;6.67;4.00;;;;;14.91;83.95;101307.38;6192715;22;45347;-66
2022/12/24 10:39:18;;;;;;;;;4.00;2.33;;;;;14.92;83.69;101300.25;6218776;22;45338;-65
2022/12/24 10:41:45;;;;;;;;;6.00;3.00;;;;;14.91;83.10;101301.19;6244817;22;45177;-67
2022/12/24 10:44:17;;;;;;;;;4.33;3.00;;;;;14.88;83.28;101296.88;6243941;22;45536;-67
2022/12/24 10:46:43;;;;;;;;;3.67;3.00;;;;;14.87;83.25;101303.19;6218801;22;45345;-66
2022/12/24 10:49:18;;;;;;;;;5.33;1.00;;;;;14.78;81.46;101298.38;6218952;22;45284;-66
2022/12/24 10:51:54;;;;;;;;;6.67;3.00;;;;;14.69;83.05;101303.34;6244887;22;45222;-67
2022/12/24 10:54:25;;;;;;;;;4.00;2.00;;;;;14.65;82.87;101307.16;6218275;22;45326;-66
2022/12/24 10:56:55;;;;;;;;;1.67;1.67;;;;;14.67;83.24;101299.03;6243897;22;45315;-66
2022/12/24 10:59:32;;;;;;;;;1.67;1.33;;;;;14.70;83.18;101297.00;6244914;22;45484;-69
2022/12/24 11:01:59;;;;;;;;;7.00;6.00;;;;;14.72;82.68;101297.78;6216990;22;45354;-68
2022/12/24 11:04:30;;;;;;;;;4.00;3.00;;;;;14.72;83.06;101303.16;6245312;22;45336;-68
2022/12/24 11:06:56;;;;;;;;;3.00;2.00;;;;;14.72;82.78;101294.25;6217521;22;45270;-67
2022/12/24 11:09:31;;;;;;;;;1.67;1.00;;;;;14.77;83.04;101294.84;6245138;22;45380;-67
2022/12/24 11:11:58;;;;;;;;;2.33;2.00;;;;;14.82;82.96;101294.56;6245397;22;45299;-65
2022/12/24 11:14:24;;;;;;;;;5.00;3.00;;;;;14.86;82.99;101285.38;6245940;22;45455;-66
2022/12/24 11:16:54;;;;;;;;;2.67;2.67;;;;;14.91;82.59;101293.16;6216207;22;45316;-67
2022/12/24 11:19:30;;;;;;;;;9.00;4.33;;;;;14.94;82.55;101290.28;6245341;22;45309;-67
2022/12/24 11:22:22;;;;;;;;;3.00;2.00;;;;;14.93;82.42;101277.81;6216656;22;45431;-67
2022/12/24 11:24:56;;;;;;;;;2.33;2.33;;;;;14.94;81.76;101260.81;6245147;22;45216;-67
2022/12/24 11:27:43;;;;;;;;;2.67;1.00;;;;;14.96;81.97;101272.31;6217643;22;45268;-63
2022/12/24 11:30:14;;;;;;;;;6.67;2.67;;;;;14.97;82.20;101277.56;6245072;22;45232;-67
2022/12/24 11:32:39;;;;;;;;;5.00;2.33;;;;;14.98;82.11;101279.28;6244999;22;45647;-67
2022/12/24 11:35:26;;;;;;;;;6.67;1.67;;;;;15.00;81.78;101285.41;6218013;22;46061;-67
2022/12/24 11:38:03;;;;;;;;;2.67;2.00;;;;;15.01;82.33;101287.13;6244317;22;45700;-66
2022/12/24 11:40:42;;;;;;;;;5.00;2.00;;;;;14.98;81.97;101291.81;6244596;22;45174;-66
2022/12/24 11:43:20;;;;;;;;;7.67;3.00;;;;;14.98;81.84;101290.00;6245236;22;45414;-66
2022/12/24 11:45:53;;;;;;;;;2.00;2.00;;;;;15.02;81.74;101288.00;6217378;22;47050;-66
2022/12/24 11:48:33;;;;;;;;;5.67;2.67;;;;;15.07;81.71;101290.38;6244138;22;45261;-66
2022/12/24 11:51:01;;;;;;;;;4.67;3.00;;;;;15.08;81.43;101292.13;6245437;22;45378;-66
2022/12/24 11:53:59;;;;;;;;;2.00;2.00;;;;;15.09;81.56;101297.38;6245659;22;45351;-66
2022/12/24 11:56:42;;;;;;;;;8.00;5.00;;;;;15.03;81.49;101293.28;6244238;22;45342;-66
2022/12/24 11:59:19;;;;;;;;;7.33;3.00;;;;;15.05;81.74;101299.38;6218820;22;45299;-67
2022/12/24 12:01:59;;;;;;;;;4.33;3.00;;;;;15.02;81.54;101275.47;6244400;22;45283;-66
2022/12/24 12:04:29;;;;;;;;;2.00;2.00;;;;;14.97;81.08;101282.91;6243882;22;45168;-66
2022/12/24 12:06:59;;;;;;;;;3.33;3.00;;;;;14.98;81.68;101273.94;6245012;22;45350;-67
2022/12/24 12:09:31;;;;;;;;;2.67;2.00;;;;;14.99;81.97;101264.94;6217987;22;45184;-67
2022/12/24 12:12:01;;;;;;;;;2.00;2.00;;;;;14.99;81.70;101274.78;6245126;22;45735;-66
2022/12/24 12:14:38;;;;;;;;;4.67;3.00;;;;;14.94;81.63;101279.56;6245647;22;45414;-66
2022/12/24 12:17:22;;;;;;;;;6.00;4.33;;;;;14.91;81.95;101261.00;6216515;22;46234;-67
2022/12/24 12:19:53;;;;;;;;;6.67;3.00;;;;;14.91;82.60;101250.31;6244827;22;45320;-66
2022/12/24 12:22:38;;;;;;;;;6.00;4.00;;;;;14.97;82.20;101249.94;6218401;22;45357;-66
2022/12/24 12:25:05;;;;;;;;;2.67;2.67;;;;;15.05;82.01;101245.81;6218187;22;45255;-67
2022/12/24 12:27:45;;;;;;;;;4.00;1.00;;;;;15.12;82.04;101242.75;6244710;22;45224;-67
2022/12/24 12:30:19;;;;;;;;;3.33;3.00;;;;;15.15;82.37;101240.75;6218161;22;45478;-67
2022/12/24 12:32:56;;;;;;;;;6.33;4.67;;;;;15.16;82.19;101249.63;6245888;22;45371;-63
2022/12/24 12:35:33;;;;;;;;;3.67;3.67;;;;;15.11;81.84;101255.28;6247060;22;45642;-63
2022/12/24 12:38:12;;;;;;;;;8.67;3.00;;;;;15.04;82.14;101256.63;6218720;22;47134;-62
2022/12/24 12:40:58;;;;;;;;;5.00;3.00;;;;;14.98;82.37;101259.66;6246175;22;45451;-62
2022/12/24 12:43:39;;;;;;;;;3.33;3.33;;;;;14.87;82.86;101268.38;6219728;22;45260;-62
2022/12/24 12:46:04;;;;;;;;;2.00;2.00;;;;;14.81;83.19;101272.28;6245788;22;45493;-63
2022/12/24 12:48:37;;;;;;;;;3.67;3.33;;;;;14.74;83.84;101275.41;6246025;22;46159;-63
2022/12/24 12:51:25;;;;;;;;;2.33;1.00;;;;;14.62;84.34;101274.31;6219058;22;45281;-62
2022/12/24 12:53:53;;;;;;;;;4.00;3.67;;;;;14.55;84.39;101266.63;6218689;22;45285;-62
2022/12/24 12:56:25;;;;;;;;;5.00;3.33;;;;;14.52;85.30;101255.25;6247048;22;45189;-61
2022/12/24 12:59:36;;;;;;;;;4.00;3.00;;;;;14.53;84.89;101265.84;6245684;22;46101;-61
2022/12/24 13:02:20;;;;;;;;;0.00;0.00;;;;;14.55;85.49;101266.63;6156373;23;45268;-62
2022/12/24 13:04:57;;;;;;;;;6.67;4.33;;;;;14.57;84.67;101266.53;6244686;22;45344;-62
2022/12/24 13:07:49;;;;;;;;;4.00;2.00;;;;;14.59;85.25;101261.09;6245863;22;45451;-62
2022/12/24 13:10:23;;;;;;;;;3.33;3.00;;;;;14.59;84.98;101261.97;6219433;22;46440;-62
2022/12/24 13:13:28;;;;;;;;;5.00;3.00;;;;;14.63;84.99;101260.81;6245530;22;45225;-63
2022/12/24 13:16:12;;;;;;;;;6.67;3.67;;;;;14.69;84.72;101264.97;6218826;22;45417;-62
2022/12/24 13:18:57;;;;;;;;;5.00;3.33;;;;;14.74;84.29;101262.03;6246192;22;45344;-62
2022/12/24 13:21:25;;;;;;;;;8.33;4.00;;;;;14.73;84.24;101255.81;6219456;22;46229;-61
2022/12/24 13:24:04;;;;;;;;;3.00;2.00;;;;;14.68;84.11;101253.41;6218868;22;45292;-62
2022/12/24 13:26:29;;;;;;;;;5.33;4.00;;;;;14.63;83.70;101247.44;6218224;22;45824;-62
2022/12/24 13:29:28;;;;;;;;;12.67;12.00;;;;;14.62;84.63;101240.34;6240611;22;45826;-62
2022/12/24 13:32:19;;;;;;;;;11.00;11.00;;;;;14.62;83.97;101243.03;6244472;22;45352;-62
2022/12/24 13:35:02;;;;;;;;;9.50;7.00;;;;;14.60;84.41;101254.78;6244934;22;45181;-61
2022/12/24 13:37:30;;;;;;;;;6.33;5.00;;;;;14.53;84.44;101239.09;6244543;22;45289;-60
2022/12/24 13:40:04;;;;;;;;;3.67;3.33;;;;;14.49;84.76;101240.22;6243785;22;45519;-61
2022/12/24 13:42:58;;;;;;;;;9.00;3.00;;;;;14.48;84.79;101237.66;6243594;22;46037;-61
2022/12/24 13:45:32;;;;;;;;;4.67;3.00;;;;;14.44;84.74;101236.97;6245563;22;45515;-61
2022/12/24 13:48:05;;;;;;;;;5.00;3.00;;;;;14.42;84.72;101238.88;6244013;22;45303;-61
2022/12/24 13:50:37;;;;;;;;;4.00;3.00;;;;;14.37;85.07;101236.47;6244812;22;45331;-62
2022/12/24 13:53:04;;;;;;;;;5.33;4.00;;;;;14.35;84.98;101235.72;6217413;22;46149;-63
2022/12/24 13:55:30;;;;;;;;;4.67;3.67;;;;;14.31;85.30;101238.66;6217025;22;45770;-63
2022/12/24 13:57:59;;;;;;;;;6.00;3.00;;;;;14.28;85.60;101244.19;6217265;22;45419;-65
2022/12/24 14:00:29;;;;;;;;;5.33;4.00;;;;;14.27;85.68;101247.81;6217601;22;45258;-67
2022/12/24 14:03:13;;;;;;;;;4.33;2.67;;;;;14.27;86.02;101250.50;6244596;22;47363;-66
2022/12/24 14:05:41;;;;;;;;;5.33;1.67;;;;;14.27;85.82;101251.34;6244913;22;45368;-67
2022/12/24 14:08:24;;;;;;;;;3.67;2.33;;;;;14.26;86.26;101248.75;6246143;22;45519;-67
2022/12/24 14:11:12;;;;;;;;;6.00;3.00;;;;;14.24;86.84;101246.19;6243987;22;45387;-68
2022/12/24 14:13:37;;;;;;;;;4.67;3.00;;;;;14.25;86.55;101247.03;6245560;22;46037;-66
2022/12/24 14:16:06;;;;;;;;;4.67;3.67;;;;;14.25;86.88;101253.25;6230068;22;45374;-67
2022/12/24 14:18:36;;;;;;;;;5.67;3.67;;;;;14.24;87.05;101256.88;6243777;22;45268;-68
2022/12/24 14:21:03;;;;;;;;;4.00;4.00;;;;;14.28;87.13;101260.25;6216425;22;45508;-68
2022/12/24 14:23:43;;;;;;;;;5.00;5.00;;;;;14.30;87.56;101269.03;6218738;22;46892;-67
2022/12/24 14:26:14;;;;;;;;;5.67;4.00;;;;;14.32;87.16;101276.00;6246644;22;45350;-67
2022/12/24 14:28:43;;;;;;;;;7.67;7.00;;;;;14.34;87.83;101270.56;6217694;22;45446;-68
2022/12/24 14:31:18;;;;;;;;;6.00;6.00;;;;;14.36;87.54;101264.19;6218328;22;45865;-68
2022/12/24 14:33:44;;;;;;;;;13.33;11.00;;;;;14.36;87.58;101272.19;6218900;22;45924;-67
2022/12/24 14:36:09;;;;;;;;;8.00;6.33;;;;;14.37;87.58;101268.59;6244908;22;45727;-68
2022/12/24 14:38:36;;;;;;;;;8.33;5.00;;;;;14.37;87.74;101268.59;6246227;22;45319;-68
2022/12/24 14:41:19;;;;;;;;;6.67;5.00;;;;;14.34;87.48;101271.44;6216771;22;45736;-67
2022/12/24 14:43:51;;;;;;;;;2.33;2.33;;;;;14.30;87.63;101269.03;6245740;22;45367;-67
2022/12/24 14:46:34;;;;;;;;;6.00;5.00;;;;;14.24;87.56;101275.59;6216954;22;45969;-67
2022/12/24 14:49:05;;;;;;;;;6.33;6.33;;;;;14.22;88.21;101277.50;6218999;22;45306;-67
2022/12/24 14:51:55;;;;;;;;;3.00;3.00;;;;;14.24;88.00;101270.25;6246065;22;45229;-68
2022/12/24 14:54:26;;;;;;;;;4.33;2.67;;;;;14.20;87.88;101266.03;6245048;22;46263;-67
2022/12/24 14:57:11;;;;;;;;;5.00;3.00;;;;;14.15;88.22;101265.44;6244167;22;45204;-68
2022/12/24 14:59:54;;;;;;;;;5.00;4.00;;;;;14.12;88.35;101262.94;6245500;22;45784;-67
2022/12/24 15:02:42;;;;;;;;;5.00;5.00;;;;;14.07;88.61;101258.72;6244081;22;45388;-68
2022/12/24 15:05:11;;;;;;;;;7.00;4.33;;;;;14.07;88.68;101256.03;6217497;22;46059;-67
2022/12/24 15:07:40;;;;;;;;;4.00;3.67;;;;;14.05;88.85;101257.94;6245480;22;45387;-67
2022/12/24 15:10:07;;;;;;;;;9.00;5.00;;;;;14.03;88.71;101261.66;6245210;22;45280;-67
2022/12/24 15:12:33;;;;;;;;;8.00;6.33;;;;;13.98;88.63;101264.59;6245442;22;45531;-67
2022/12/24 15:14:59;;;;;;;;;4.67;4.67;;;;;13.93;88.80;101263.97;6217742;22;46388;-67
2022/12/24 15:17:25;;;;;;;;;5.67;3.00;;;;;13.87;89.22;101269.66;6244638;22;63913;-68
2022/12/24 15:19:51;;;;;;;;;6.33;6.33;;;;;13.83;89.55;101266.34;6216618;22;61208;-68
2022/12/24 15:22:29;;;;;;;;;6.00;5.00;;;;;13.79;90.13;101262.09;6218385;22;45586;-67
2022/12/24 15:24:54;;;;;;;;;7.33;3.67;;;;;13.75;89.80;101265.03;6217009;22;45753;-67
2022/12/24 15:27:22;;;;;;;;;6.33;6.33;;;;;13.69;90.35;101251.06;6243878;22;66932;-67
2022/12/24 15:29:50;;;;;;;;;5.33;5.00;;;;;13.69;90.99;101272.44;6246004;22;45267;-67
2022/12/24 15:32:18;;;;;;;;;5.33;5.00;;;;;13.70;90.71;101281.31;6244644;22;45214;-67
2022/12/24 15:34:45;;;;;;;;;5.33;5.00;;;;;13.70;90.68;101276.84;6243210;22;46274;-68
2022/12/24 15:37:20;;;;;;;;;6.00;4.00;;;;;13.68;90.66;101272.53;6244565;22;45291;-67
2022/12/24 15:40:02;;;;;;;;;3.00;3.00;;;;;13.64;90.55;101269.16;6245093;22;45639;-68
2022/12/24 15:42:28;;;;;;;;;4.67;4.33;;;;;13.59;91.18;101263.22;6218691;22;45310;-68
2022/12/24 15:45:03;;;;;;;;;8.00;5.67;;;;;13.58;91.25;101264.16;6244861;22;46139;-68
2022/12/24 15:47:36;;;;;;;;;3.00;3.00;;;;;13.56;91.24;101255.38;6245880;22;45242;-68
2022/12/24 15:50:22;;;;;;;;;5.33;5.33;;;;;13.53;91.35;101261.75;6242717;22;45323;-67
2022/12/24 15:52:48;;;;;;;;;4.00;3.00;;;;;13.49;91.79;101261.97;6216017;22;45421;-67
2022/12/24 15:55:36;;;;;;;;;5.33;5.00;;;;;13.44;91.62;101259.59;6243355;22;46279;-68
2022/12/24 15:58:16;;;;;;;;;5.67;3.67;;;;;13.44;91.65;101266.72;6244349;22;45191;-68
2022/12/24 16:00:41;;;;;;;;;4.67;4.00;;;;;13.41;91.79;101273.09;6245118;22;45288;-68
2022/12/24 16:03:17;;;;;;;;;4.00;4.00;;;;;13.39;91.96;101270.50;6217915;22;45275;-68
2022/12/24 16:05:42;;;;;;;;;5.33;2.00;;;;;13.40;92.32;101271.34;6242234;22;46266;-68
2022/12/24 16:08:15;;;;;;;;;6.00;5.00;;;;;13.43;92.65;101271.22;6245060;22;45228;-67
2022/12/24 16:10:43;;;;;;;;;4.67;4.67;;;;;13.45;91.94;101271.13;6245569;22;45477;-67
2022/12/24 16:13:16;;;;;;;;;5.67;4.67;;;;;13.45;92.57;101277.31;6215913;22;45543;-67
2022/12/24 16:15:47;;;;;;;;;6.00;6.00;;;;;13.46;92.06;101271.03;6243325;22;45348;-67
2022/12/24 16:18:25;;;;;;;;;6.67;6.00;;;;;13.47;92.59;101279.94;6216031;22;45230;-63
2022/12/24 16:20:52;;;;;;;;;3.00;3.00;;;;;13.46;92.14;101280.88;6191592;22;45422;-63
2022/12/24 16:23:27;;;;;;;;;6.00;4.00;;;;;13.40;92.41;101271.34;6216257;22;45389;-64
2022/12/24 16:25:53;;;;;;;;;6.00;6.00;;;;;13.35;92.22;101274.25;6240617;22;46201;-64
2022/12/24 16:28:19;;;;;;;;;7.67;5.67;;;;;13.35;92.68;101279.63;6243310;22;45566;-64
2022/12/24 16:30:45;;;;;;;;;7.00;5.00;;;;;13.35;92.63;101287.63;6217671;22;45332;-63
2022/12/24 16:33:14;;;;;;;;;7.00;4.00;;;;;13.34;92.72;101295.72;6244969;22;45638;-64
2022/12/24 16:35:39;;;;;;;;;9.00;6.67;;;;;13.31;93.08;101293.19;6218130;22;46105;-63
2022/12/24 16:38:04;;;;;;;;;10.00;6.00;;;;;13.31;93.15;101299.44;6239428;22;56295;-63
2022/12/24 16:40:30;;;;;;;;;5.00;3.67;;;;;13.29;92.54;101298.63;6241173;22;58259;-65
2022/12/24 16:45:40;;;;;;;;;8.67;7.33;;;;;13.20;92.87;101299.13;6241174;22;45626;-64
2022/12/24 16:48:06;;;;;;;;;3.67;3.67;;;;;13.18;93.68;101303.69;6214870;22;45306;-64
2022/12/24 16:50:31;;;;;;;;;7.33;5.67;;;;;13.15;93.57;101304.69;6244578;22;45316;-63
2022/12/24 16:52:57;;;;;;;;;5.67;5.67;;;;;13.12;93.77;101299.53;6241321;22;58173;-64
2022/12/24 16:55:22;;;;;;;;;6.33;5.33;;;;;13.12;93.95;101293.34;6241368;22;65492;-63
2022/12/24 16:57:47;;;;;;;;;11.33;7.00;;;;;13.12;93.94;101291.53;6242428;22;59920;-63
2022/12/24 17:00:19;;;;;;;;;4.67;4.00;;;;;13.11;94.00;101287.13;6244221;22;45527;-63
2022/12/24 17:02:45;;;;;;;;;7.00;5.00;;;;;13.11;94.15;101286.28;6243497;22;45276;-64
2022/12/24 17:05:10;;;;;;;;;6.33;6.33;;;;;13.08;94.32;101285.47;6243100;22;45448;-63
2022/12/24 17:07:36;;;;;;;;;8.33;6.00;;;;;13.07;94.17;101297.13;6243454;22;55362;-63
2022/12/24 17:10:01;;;;;;;;;6.67;4.67;;;;;13.02;94.36;101292.94;6240940;22;60330;-63
2022/12/24 17:12:26;;;;;;;;;5.33;5.33;;;;;12.98;94.99;101297.56;6243264;22;45386;-63
2022/12/24 17:14:52;;;;;;;;;6.00;5.33;;;;;12.96;95.29;101312.84;6241745;22;66016;-63
2022/12/24 17:17:24;;;;;;;;;6.00;5.00;;;;;12.93;95.86;101320.97;6241166;22;45413;-64
2022/12/24 17:19:49;;;;;;;;;6.33;6.00;;;;;12.91;95.85;101329.06;6245123;22;45256;-63
2022/12/24 17:22:15;;;;;;;;;4.67;4.33;;;;;12.91;96.21;101328.22;6246520;22;45375;-63
2022/12/24 17:24:41;;;;;;;;;6.67;5.67;;;;;12.90;96.21;101327.34;6216251;22;46167;-63
2022/12/24 17:27:06;;;;;;;;;5.33;4.33;;;;;12.91;96.53;101337.09;6245665;22;45251;-61
2022/12/24 17:29:32;;;;;;;;;6.00;6.00;;;;;12.89;96.01;101333.66;6242377;22;45579;-65
2022/12/24 17:31:57;;;;;;;;;8.00;6.33;;;;;12.89;96.68;101340.78;6241381;22;59675;-64
2022/12/24 17:34:23;;;;;;;;;6.00;5.33;;;;;12.92;96.69;101340.63;6245123;22;48555;-64
2022/12/24 17:36:48;;;;;;;;;6.67;5.67;;;;;12.94;96.70;101345.91;6245827;22;45300;-64
2022/12/24 17:39:14;;;;;;;;;5.67;5.67;;;;;12.95;96.84;101348.47;6246121;22;45936;-64
2022/12/24 17:41:39;;;;;;;;;5.33;5.00;;;;;12.94;96.92;101349.41;6246331;22;45451;-64
2022/12/24 17:44:07;;;;;;;;;6.67;5.00;;;;;12.95;96.98;101355.63;6245450;22;65060;-64
2022/12/24 17:46:33;;;;;;;;;10.00;8.00;;;;;12.95;97.03;101359.16;6245636;22;45224;-64
2022/12/24 17:48:58;;;;;;;;;5.00;5.00;;;;;12.95;97.29;101348.47;6246243;22;45407;-65
2022/12/24 17:51:24;;;;;;;;;5.33;5.33;;;;;12.95;97.21;101337.78;6246589;22;45192;-66
2022/12/24 17:53:49;;;;;;;;;7.00;6.33;;;;;12.94;97.38;101338.72;6243022;22;46226;-64
2022/12/24 17:56:15;;;;;;;;;9.67;6.67;;;;;12.93;97.90;101331.66;6245965;22;45231;-65
2022/12/24 17:58:42;;;;;;;;;8.67;7.33;;;;;12.91;97.43;101328.22;6219610;22;45548;-64
2022/12/24 18:01:29;;;;;;;;;7.33;6.00;;;;;12.89;98.26;101324.75;6244751;22;45281;-64
2022/12/24 18:03:57;;;;;;;;;10.00;6.33;;;;;12.85;98.54;101309.84;6242830;22;45284;-65
2022/12/24 18:06:22;;;;;;;;;9.00;5.33;;;;;12.78;99.83;101285.28;6245862;22;45145;-65
2022/12/24 18:08:48;;;;;;;;;8.00;8.00;;;;;12.71;99.27;101273.16;6245610;22;45315;-65
2022/12/24 18:11:21;;;;;;;;;8.00;7.00;;;;;12.67;99.50;101283.16;6246194;22;45362;-65
2022/12/24 18:13:48;;;;;;;;;10.67;9.67;;;;;12.62;99.71;101287.88;6242975;22;46268;-65
2022/12/24 18:16:24;;;;;;;;;9.67;9.33;;;;;12.58;100.00;101283.66;6245454;22;45332;-65
2022/12/24 18:18:51;;;;;;;;;12.00;12.00;;;;;12.53;100.00;101285.69;6243546;22;45550;-64
2022/12/24 18:21:18;;;;;;;;;10.67;8.00;;;;;12.52;100.00;101274.13;6246333;22;45405;-64
2022/12/24 18:23:45;;;;;;;;;12.33;9.33;;;;;12.47;100.00;101283.31;6245337;22;45351;-64
2022/12/24 18:26:11;;;;;;;;;11.00;8.00;;;;;12.47;100.00;101283.31;6216455;22;45638;-64
2022/12/24 18:28:37;;;;;;;;;9.33;7.33;;;;;12.43;100.00;101290.59;6244814;22;45320;-64
2022/12/24 18:31:06;;;;;;;;;8.33;8.33;;;;;12.41;100.00;101288.00;6245170;22;45221;-64
2022/12/24 18:33:32;;;;;;;;;6.33;6.33;;;;;12.44;100.00;101291.44;6242589;22;46337;-65
2022/12/24 18:35:58;;;;;;;;;9.67;8.33;;;;;12.44;100.00;101302.13;6243797;22;45627;-65
2022/12/24 18:38:24;;;;;;;;;12.33;9.33;;;;;12.46;100.00;101311.78;6245470;22;45235;-65
2022/12/24 18:40:49;;;;;;;;;9.00;7.67;;;;;12.48;100.00;101309.06;6246109;22;45299;-65
2022/12/24 18:43:14;;;;;;;;;12.67;8.67;;;;;12.51;100.00;101316.91;6244955;22;57578;-64
2022/12/24 18:45:44;;;;;;;;;9.00;9.00;;;;;12.56;100.00;101317.53;6245145;22;45348;-65
2022/12/24 18:48:10;;;;;;;;;12.33;10.67;;;;;12.59;100.00;101309.34;6246676;22;45310;-65